Time;durP1;ratioP1;P1;durP2;ratioP2;P2;SDS_P1;SDS_P2;PMS_P1;PMS_P2;Temp;Humidity;BMP_temperature;BMP_pressure;BME280_temperature;BME280_humidity;BME280_pressure;Samples;Min_cycle;Max_cycle;Signal;HPM_P1;HPM_P2
2021/08/23 00:02:14;;;;;;;6.70;3.72;;;14.70;99.90;;;;;;5053517;28;20077;-68
2021/08/23 00:04:39;;;;;;;5.78;4.10;;;14.80;99.90;;;;;;5053617;28;20371;-67
2021/08/23 00:07:05;;;;;;;7.47;3.70;;;14.80;99.90;;;;;;5052732;28;20025;-67
2021/08/23 00:09:31;;;;;;;6.50;3.70;;;14.70;99.90;;;;;;5053620;28;20033;-67
2021/08/23 00:11:58;;;;;;;7.38;4.00;;;14.70;99.90;;;;;;5052686;28;20036;-67
2021/08/23 00:14:23;;;;;;;4.95;3.70;;;14.70;99.90;;;;;;5053648;28;20017;-67
2021/08/23 00:16:49;;;;;;;8.60;3.80;;;14.70;99.90;;;;;;5052177;28;20446;-67
2021/08/23 00:19:15;;;;;;;6.82;3.35;;;14.60;99.90;;;;;;5053620;28;20108;-67
2021/08/23 00:21:44;;;;;;;4.80;3.67;;;14.70;99.90;;;;;;5053181;28;20076;-67
2021/08/23 00:24:21;;;;;;;5.57;4.20;;;14.70;99.90;;;;;;5052446;28;20020;-67
2021/08/23 00:26:51;;;;;;;7.10;3.75;;;14.70;99.90;;;;;;5053113;28;20040;-67
2021/08/23 00:29:17;;;;;;;;;;;14.70;99.90;;;;;;5053703;28;20421;-67
2021/08/23 00:31:44;;;;;;;5.85;3.63;;;14.60;99.90;;;;;;5052832;28;19905;-67
2021/08/23 00:34:09;;;;;;;5.07;3.53;;;14.70;99.90;;;;;;5052407;28;20685;-67
2021/08/23 00:36:35;;;;;;;5.15;3.63;;;14.70;99.90;;;;;;5052952;28;20056;-67
2021/08/23 00:39:01;;;;;;;7.28;3.88;;;14.70;99.90;;;;;;5052526;28;20425;-67
2021/08/23 00:41:27;;;;;;;4.05;3.65;;;14.70;99.90;;;;;;5052962;28;20049;-67
2021/08/23 00:43:53;;;;;;;5.15;3.72;;;14.70;99.90;;;;;;5052588;28;20021;-67
2021/08/23 00:46:18;;;;;;;5.05;3.70;;;14.70;99.90;;;;;;5052286;28;20112;-67
2021/08/23 00:48:44;;;;;;;6.05;3.03;;;14.70;99.90;;;;;;5052147;28;20035;-67
2021/08/23 00:51:09;;;;;;;4.13;3.45;;;14.70;99.90;;;;;;5052294;28;20037;-67
2021/08/23 00:53:35;;;;;;;7.13;3.53;;;14.70;99.90;;;;;;5053237;28;20496;-67
2021/08/23 00:56:01;;;;;;;8.80;4.05;;;14.80;99.90;;;;;;5051821;28;20511;-67
2021/08/23 00:58:27;;;;;;;4.57;3.40;;;14.80;99.90;;;;;;5052516;28;20051;-67
2021/08/23 01:01:02;;;;;;;7.30;3.72;;;14.80;99.90;;;;;;5051677;28;20025;-67
2021/08/23 01:03:36;;;;;;;7.18;3.80;;;14.80;99.90;;;;;;5052153;28;20036;-67
2021/08/23 01:06:05;;;;;;;5.25;3.67;;;14.80;99.90;;;;;;5051840;28;20029;-67
2021/08/23 01:08:40;;;;;;;6.28;3.75;;;14.80;99.90;;;;;;5052475;28;20061;-67
2021/08/23 01:11:14;;;;;;;5.05;3.40;;;14.80;99.90;;;;;;5051957;28;20037;-67
2021/08/23 01:13:44;;;;;;;6.07;3.63;;;14.80;99.90;;;;;;5052722;28;20025;-67
2021/08/23 01:16:10;;;;;;;8.45;4.20;;;14.80;99.90;;;;;;5051344;28;20078;-67
2021/08/23 01:18:35;;;;;;;6.45;3.95;;;14.80;99.90;;;;;;5052113;28;20119;-67
2021/08/23 01:21:03;;;;;;;7.07;3.95;;;14.80;99.90;;;;;;5051164;28;20037;-67
2021/08/23 01:23:34;;;;;;;4.82;3.17;;;14.80;99.90;;;;;;5052325;28;20052;-67
2021/08/23 01:25:59;;;;;;;5.20;3.33;;;14.80;99.90;;;;;;5051566;28;20387;-66
2021/08/23 01:28:41;;;;;;;6.65;3.30;;;14.70;99.90;;;;;;5052178;28;20039;-66
2021/08/23 01:31:16;;;;;;;4.50;3.47;;;14.70;99.90;;;;;;5051147;28;20036;-67
2021/08/23 01:33:44;;;;;;;3.85;3.38;;;14.70;99.90;;;;;;5051925;28;20025;-66
2021/08/23 01:36:10;;;;;;;5.70;2.85;;;14.70;99.90;;;;;;5051256;28;20021;-66
2021/08/23 01:38:36;;;;;;;6.47;2.67;;;14.70;99.90;;;;;;5051888;28;20056;-66
2021/08/23 01:41:05;;;;;;;6.00;3.15;;;14.80;99.90;;;;;;5050509;28;20406;-66
2021/08/23 01:43:31;;;;;;;5.50;2.85;;;14.80;99.90;;;;;;5051930;28;20378;-66
2021/08/23 01:45:57;;;;;;;4.75;2.75;;;14.90;99.90;;;;;;5051188;28;20478;-66
2021/08/23 01:48:23;;;;;;;6.78;2.90;;;14.90;99.90;;;;;;5051628;28;20113;-67
2021/08/23 01:50:49;;;;;;;6.10;2.88;;;14.90;99.90;;;;;;5051775;28;20425;-66
2021/08/23 01:53:16;;;;;;;4.55;2.17;;;14.90;99.90;;;;;;5051282;28;20033;-66
2021/08/23 01:55:43;;;;;;;4.45;2.70;;;14.90;99.90;;;;;;5051935;28;20029;-67
2021/08/23 01:58:09;;;;;;;3.88;2.90;;;14.90;99.90;;;;;;5051639;28;20064;-67
2021/08/23 02:00:35;;;;;;;3.83;2.53;;;14.90;99.90;;;;;;5052082;28;20431;-66
2021/08/23 02:03:00;;;;;;;3.67;2.88;;;15.00;99.90;;;;;;5050474;28;20033;-66
2021/08/23 02:05:28;;;;;;;4.70;2.85;;;15.00;99.90;;;;;;5051525;28;20033;-66
2021/08/23 02:07:54;;;;;;;3.63;2.97;;;15.00;99.90;;;;;;5051440;28;20075;-66
2021/08/23 02:10:20;;;;;;;4.13;2.92;;;14.90;99.90;;;;;;5051340;28;20033;-66
2021/08/23 02:12:46;;;;;;;4.20;2.92;;;15.00;99.90;;;;;;5051565;28;20116;-66
2021/08/23 02:15:11;;;;;;;4.63;2.72;;;15.00;99.90;;;;;;5051104;28;20134;-66
2021/08/23 02:17:37;;;;;;;3.50;3.00;;;15.00;99.90;;;;;;5051184;28;20390;-66
2021/08/23 02:20:08;;;;;;;4.40;2.92;;;15.00;99.90;;;;;;5050861;28;20390;-66
2021/08/23 02:22:33;;;;;;;8.70;3.15;;;15.00;99.90;;;;;;5051588;28;20033;-66
2021/08/23 02:24:59;;;;;;;6.85;3.08;;;15.00;99.90;;;;;;5051097;28;20198;-66
2021/08/23 02:27:25;;;;;;;5.13;2.50;;;15.00;99.90;;;;;;5051763;28;20040;-66
2021/08/23 02:29:50;;;;;;;4.43;3.38;;;15.00;99.90;;;;;;5051652;28;20406;-66
2021/08/23 02:32:16;;;;;;;3.28;2.63;;;15.00;99.90;;;;;;5050657;28;20116;-66
2021/08/23 02:34:42;;;;;;;8.73;3.00;;;15.00;99.90;;;;;;5051493;28;20029;-66
2021/08/23 02:37:07;;;;;;;5.60;3.15;;;15.00;99.90;;;;;;5050455;28;20434;-66
2021/08/23 02:39:33;;;;;;;5.60;2.80;;;15.00;99.90;;;;;;5051308;28;20033;-66
2021/08/23 02:41:58;;;;;;;6.80;3.00;;;15.00;99.90;;;;;;5054404;28;20180;-66
2021/08/23 02:44:24;;;;;;;3.72;2.50;;;15.00;99.90;;;;;;5055020;28;20024;-66
2021/08/23 02:46:50;;;;;;;4.25;2.88;;;15.10;99.90;;;;;;5054671;28;20440;-66
2021/08/23 02:49:16;;;;;;;3.92;2.70;;;15.10;99.90;;;;;;5054594;28;20029;-66
2021/08/23 02:51:44;;;;;;;4.28;2.70;;;15.10;99.90;;;;;;5055143;28;20033;-66
2021/08/23 02:54:10;;;;;;;7.43;2.75;;;15.10;99.90;;;;;;5054309;28;20036;-66
2021/08/23 02:56:36;;;;;;;5.97;3.20;;;15.10;99.90;;;;;;5055043;28;20056;-66
2021/08/23 02:59:01;;;;;;;4.85;2.70;;;15.20;99.90;;;;;;5054410;28;20434;-66
2021/08/23 03:01:27;;;;;;;4.97;2.90;;;15.10;99.90;;;;;;5054814;28;20382;-66
2021/08/23 03:03:53;;;;;;;5.45;2.90;;;15.20;99.90;;;;;;5054716;28;20036;-66
2021/08/23 03:06:18;;;;;;;4.20;2.85;;;15.20;99.90;;;;;;5054032;28;20024;-66
2021/08/23 03:08:44;;;;;;;6.25;2.95;;;15.20;99.90;;;;;;5054168;28;20057;-66
2021/08/23 03:11:12;;;;;;;3.28;2.75;;;15.20;99.90;;;;;;5054079;28;20044;-66
2021/08/23 03:13:38;;;;;;;5.13;3.05;;;15.20;99.90;;;;;;5054544;28;20057;-65
2021/08/23 03:16:05;;;;;;;5.88;2.90;;;15.20;99.90;;;;;;5053875;28;20119;-65
2021/08/23 03:18:32;;;;;;;4.13;2.60;;;15.20;99.90;;;;;;5054374;28;20029;-66
2021/08/23 03:20:58;;;;;;;5.22;2.38;;;15.20;99.90;;;;;;5053828;28;20029;-66
2021/08/23 03:23:23;;;;;;;3.40;2.63;;;15.20;99.90;;;;;;5054237;28;20078;-65
2021/08/23 03:25:49;;;;;;;3.83;2.47;;;15.20;99.90;;;;;;5054369;28;20112;-65
2021/08/23 03:28:14;;;;;;;4.65;2.47;;;15.20;99.90;;;;;;5053539;28;20033;-66
2021/08/23 03:30:40;;;;;;;3.95;2.67;;;15.10;99.90;;;;;;5054150;28;20447;-66
2021/08/23 03:33:06;;;;;;;4.82;2.70;;;15.10;99.90;;;;;;5053361;28;20025;-66
2021/08/23 03:35:32;;;;;;;4.25;2.85;;;15.10;99.90;;;;;;5053851;28;20056;-66
2021/08/23 03:38:00;;;;;;;3.65;2.65;;;15.00;99.90;;;;;;5053674;28;20029;-66
2021/08/23 03:40:25;;;;;;;7.38;2.80;;;15.00;99.90;;;;;;5053692;28;20052;-66
2021/08/23 03:42:51;;;;;;;3.80;2.88;;;15.00;99.90;;;;;;5051321;28;20041;-66
2021/08/23 03:45:16;;;;;;;4.40;2.78;;;15.00;99.90;;;;;;5052010;28;20278;-66
2021/08/23 03:47:42;;;;;;;7.18;2.70;;;15.00;99.90;;;;;;5053116;28;20029;-66
2021/08/23 03:50:08;;;;;;;2.60;2.40;;;15.00;99.90;;;;;;5051829;28;20021;-66
2021/08/23 03:52:34;;;;;;;3.40;2.70;;;15.00;99.90;;;;;;5052543;28;20082;-66
2021/08/23 03:54:59;;;;;;;7.78;2.83;;;15.00;99.90;;;;;;5051705;28;20421;-66
2021/08/23 03:57:25;;;;;;;5.07;3.08;;;15.00;99.90;;;;;;5052352;28;20032;-65
2021/08/23 03:59:51;;;;;;;6.15;3.28;;;15.00;99.90;;;;;;5052276;28;20018;-66
2021/08/23 04:02:16;;;;;;;4.35;2.90;;;15.00;99.90;;;;;;5052007;28;20036;-66
2021/08/23 04:04:42;;;;;;;7.25;3.00;;;15.00;99.90;;;;;;5052387;28;20032;-65
2021/08/23 04:07:07;;;;;;;5.15;2.85;;;15.10;99.90;;;;;;5051311;28;20029;-66
2021/08/23 04:09:33;;;;;;;5.60;3.13;;;15.00;99.90;;;;;;5052049;28;20040;-66
2021/08/23 04:11:59;;;;;;;4.97;2.88;;;15.00;99.90;;;;;;5051575;28;20466;-66
2021/08/23 04:14:24;;;;;;;4.55;2.45;;;15.00;99.90;;;;;;5051859;28;20492;-66
2021/08/23 04:16:50;;;;;;;3.78;2.95;;;15.00;99.90;;;;;;5049464;28;20025;-66
2021/08/23 04:19:16;;;;;;;4.18;3.25;;;15.00;99.90;;;;;;5051630;28;20024;-66
2021/08/23 04:21:41;;;;;;;2.95;2.60;;;15.00;99.90;;;;;;5052055;28;20063;-66
2021/08/23 04:24:07;;;;;;;4.03;2.60;;;15.00;99.90;;;;;;5052476;28;20049;-66
2021/08/23 04:26:33;;;;;;;7.10;3.10;;;15.00;99.90;;;;;;5053346;28;20138;-66
2021/08/23 04:28:58;;;;;;;6.90;2.65;;;15.10;99.90;;;;;;5052613;28;20032;-66
2021/08/23 04:31:26;;;;;;;2.88;2.60;;;15.10;99.90;;;;;;5053393;28;20075;-66
2021/08/23 04:33:51;;;;;;;3.47;2.90;;;15.00;99.90;;;;;;5053191;28;20056;-66
2021/08/23 04:36:17;;;;;;;3.55;2.50;;;15.10;99.90;;;;;;5052388;28;20458;-66
2021/08/23 04:38:42;;;;;;;4.55;2.85;;;15.10;99.90;;;;;;5053189;28;20037;-66
2021/08/23 04:41:09;;;;;;;5.32;2.50;;;15.10;99.90;;;;;;5051631;28;20057;-66
2021/08/23 04:43:35;;;;;;;5.53;2.83;;;15.10;99.90;;;;;;5053170;28;20029;-66
2021/08/23 04:46:01;;;;;;;4.10;2.67;;;15.10;99.90;;;;;;5051768;28;20032;-66
2021/08/23 04:48:26;;;;;;;4.65;2.63;;;15.10;99.90;;;;;;5052343;28;20037;-66
2021/08/23 04:50:52;;;;;;;3.58;2.45;;;15.10;99.90;;;;;;5052778;28;20056;-65
2021/08/23 04:53:17;;;;;;;2.88;2.30;;;15.20;99.90;;;;;;5051677;28;20170;-65
2021/08/23 04:55:43;;;;;;;6.60;2.95;;;15.20;99.90;;;;;;5052998;28;20025;-67
2021/08/23 04:58:09;;;;;;;4.45;2.75;;;15.20;99.90;;;;;;5051975;28;20032;-66
2021/08/23 05:00:34;;;;;;;3.33;3.00;;;15.10;99.90;;;;;;5052274;28;20029;-66
2021/08/23 05:03:00;;;;;;;2.95;2.72;;;15.00;99.90;;;;;;5050934;28;20056;-66
2021/08/23 05:05:26;;;;;;;5.40;3.20;;;14.90;99.90;;;;;;5052603;28;20463;-67
2021/08/23 05:07:51;;;;;;;8.20;3.42;;;14.80;99.90;;;;;;5052722;28;20036;-67
2021/08/23 05:10:17;;;;;;;5.47;3.03;;;14.70;99.90;;;;;;5051273;28;20466;-66
2021/08/23 05:12:43;;;;;;;6.88;3.50;;;14.70;99.90;;;;;;5052508;28;20037;-66
2021/08/23 05:15:09;;;;;;;4.40;2.75;;;14.70;99.90;;;;;;5051155;28;20394;-66
2021/08/23 05:17:35;;;;;;;6.53;3.55;;;14.60;99.90;;;;;;5052037;28;20048;-66
2021/08/23 05:20:00;;;;;;;6.82;3.25;;;14.60;99.90;;;;;;5051195;28;20017;-67
2021/08/23 05:22:26;;;;;;;5.88;3.45;;;14.60;99.90;;;;;;5051757;28;20049;-66
2021/08/23 05:24:52;;;;;;;7.93;4.07;;;14.60;99.90;;;;;;5049170;28;20113;-66
2021/08/23 05:27:18;;;;;;;5.25;3.58;;;14.60;99.90;;;;;;5051380;28;20045;-66
2021/08/23 05:29:43;;;;;;;6.90;3.60;;;14.70;99.90;;;;;;5051962;28;20031;-66
2021/08/23 05:32:10;;;;;;;5.82;3.80;;;14.70;99.90;;;;;;5051322;28;20033;-66
2021/08/23 05:34:35;;;;;;;4.90;3.50;;;14.70;99.90;;;;;;5052280;28;20041;-66
2021/08/23 05:37:01;;;;;;;4.60;3.63;;;14.70;99.90;;;;;;5052173;28;20382;-66
2021/08/23 05:39:27;;;;;;;5.38;3.38;;;14.70;99.90;;;;;;5051255;28;20409;-67
2021/08/23 05:41:52;;;;;;;6.90;3.72;;;14.70;99.90;;;;;;5052031;28;20028;-66
2021/08/23 05:44:18;;;;;;;6.70;3.72;;;14.70;99.90;;;;;;5050951;28;20544;-67
2021/08/23 05:46:43;;;;;;;6.95;3.22;;;14.80;99.90;;;;;;5052307;28;20052;-66
2021/08/23 05:49:09;;;;;;;7.38;3.80;;;14.90;99.90;;;;;;5051533;28;20029;-67
2021/08/23 05:51:35;;;;;;;6.18;3.53;;;14.90;99.90;;;;;;5052169;28;20040;-66
2021/08/23 05:54:00;;;;;;;3.40;3.00;;;14.90;99.90;;;;;;5051399;28;20071;-67
2021/08/23 05:56:26;;;;;;;6.10;3.22;;;15.00;99.90;;;;;;5051795;28;20057;-67
2021/08/23 05:58:52;;;;;;;4.60;3.40;;;14.90;99.90;;;;;;5051908;28;20029;-68
2021/08/23 06:01:17;;;;;;;3.30;3.00;;;15.00;99.90;;;;;;5051443;28;20489;-67
2021/08/23 06:03:44;;;;;;;8.52;3.70;;;15.00;99.90;;;;;;5052029;28;20028;-68
2021/08/23 06:06:10;;;;;;;5.25;3.60;;;15.10;99.90;;;;;;5051354;28;20124;-69
2021/08/23 06:08:36;;;;;;;4.20;3.25;;;15.10;99.90;;;;;;5051691;28;20095;-69
2021/08/23 06:11:02;;;;;;;5.78;3.60;;;15.20;99.90;;;;;;5050580;28;20033;-68
2021/08/23 06:13:28;;;;;;;5.55;3.60;;;15.30;99.90;;;;;;5052331;28;20029;-66
2021/08/23 06:15:55;;;;;;;4.03;3.05;;;15.40;99.90;;;;;;5055851;28;20036;-66
2021/08/23 06:18:22;;;;;;;7.35;3.42;;;15.60;99.90;;;;;;5055354;28;20040;-67
2021/08/23 06:20:48;;;;;;;5.30;3.30;;;15.70;99.90;;;;;;5055851;28;20029;-67
2021/08/23 06:23:14;;;;;;;4.38;3.35;;;15.80;99.90;;;;;;5055336;28;20075;-67
2021/08/23 06:25:39;;;;;;;4.10;3.00;;;15.90;99.90;;;;;;5055622;28;20025;-67
2021/08/23 06:28:06;;;;;;;4.70;2.75;;;16.00;99.90;;;;;;5054393;28;20551;-68
2021/08/23 06:30:31;;;;;;;6.60;2.97;;;16.00;99.90;;;;;;5055778;28;20036;-67
2021/08/23 06:32:57;;;;;;;2.60;2.40;;;16.10;99.90;;;;;;5055354;28;20108;-68
2021/08/23 06:35:23;;;;;;;4.32;2.63;;;16.10;99.90;;;;;;5055316;28;20116;-67
2021/08/23 06:37:49;;;;;;;6.70;2.38;;;16.20;99.90;;;;;;5055418;28;20036;-69
2021/08/23 06:40:15;;;;;;;7.05;3.20;;;16.30;99.90;;;;;;5053670;28;20057;-68
2021/08/23 06:42:40;;;;;;;4.90;2.50;;;16.30;99.90;;;;;;5055322;28;20375;-74
2021/08/23 06:45:07;;;;;;;7.20;2.90;;;16.30;99.90;;;;;;5054279;28;20021;-76
2021/08/23 06:47:34;;;;;;;6.95;2.30;;;16.40;99.90;;;;;;5054858;28;20021;-75
2021/08/23 06:49:59;;;;;;;4.07;2.60;;;16.50;99.90;;;;;;5055493;28;20060;-78
2021/08/23 06:52:26;;;;;;;3.65;2.58;;;16.50;99.90;;;;;;5054862;28;20066;-76
2021/08/23 06:54:51;;;;;;;4.18;2.70;;;16.50;99.90;;;;;;5055077;28;20431;-77
2021/08/23 06:57:17;;;;;;;3.40;2.55;;;16.50;99.90;;;;;;5053379;28;20112;-80
2021/08/23 06:59:42;;;;;;;5.18;3.22;;;16.60;99.90;;;;;;5054781;28;20021;-81
2021/08/23 07:02:08;;;;;;;7.60;3.20;;;16.70;99.90;;;;;;5053775;28;20382;-80
2021/08/23 07:04:35;;;;;;;5.05;2.55;;;16.80;99.90;;;;;;5047713;28;20230;-81
2021/08/23 07:07:04;;;;;;;4.22;2.60;;;16.80;99.90;;;;;;5051356;28;20013;-80
2021/08/23 07:09:30;;;;;;;4.05;2.40;;;16.80;99.90;;;;;;5055474;28;20045;-84
2021/08/23 07:11:55;;;;;;;2.85;2.40;;;16.90;99.90;;;;;;5054404;28;20048;-81
2021/08/23 07:14:21;;;;;;;6.55;2.58;;;16.90;99.90;;;;;;5054318;28;20455;-80
2021/08/23 07:16:47;;;;;;;4.95;2.80;;;17.00;99.90;;;;;;5054477;28;20025;-79
2021/08/23 07:19:12;;;;;;;4.05;2.63;;;17.00;99.90;;;;;;5053880;28;20029;-79
2021/08/23 07:21:38;;;;;;;3.30;2.50;;;17.10;99.90;;;;;;5053902;28;20041;-80
2021/08/23 07:24:04;;;;;;;6.15;2.80;;;17.10;99.90;;;;;;5054034;28;20059;-80
2021/08/23 07:26:30;;;;;;;3.50;2.70;;;17.10;99.90;;;;;;5053134;28;20466;-81
2021/08/23 07:28:56;;;;;;;5.03;2.72;;;17.20;99.90;;;;;;5053818;28;20032;-78
2021/08/23 07:31:21;;;;;;;3.63;2.60;;;17.20;99.90;;;;;;5053343;28;20075;-80
2021/08/23 07:33:48;;;;;;;5.85;2.53;;;17.20;99.90;;;;;;5054323;28;20028;-84
2021/08/23 07:36:13;;;;;;;5.65;2.78;;;17.20;99.90;;;;;;5041265;28;20091;-76
2021/08/23 07:38:39;;;;;;;7.38;3.13;;;17.30;99.90;;;;;;5053472;28;20021;-79
2021/08/23 07:41:05;;;;;;;8.13;2.60;;;17.40;99.90;;;;;;5053180;28;20053;-83
2021/08/23 07:43:31;;;;;;;3.83;2.28;;;17.50;99.90;;;;;;5054219;28;20071;-66
2021/08/23 07:45:57;;;;;;;5.25;2.65;;;17.60;99.90;;;;;;5053510;28;20025;-67
2021/08/23 07:48:22;;;;;;;4.20;2.72;;;17.70;99.90;;;;;;5053067;28;20376;-66
2021/08/23 07:50:48;;;;;;;6.95;2.65;;;17.80;99.90;;;;;;5053829;28;20032;-66
2021/08/23 07:53:14;;;;;;;11.18;3.03;;;18.00;99.90;;;;;;5053068;28;20029;-67
2021/08/23 07:55:39;;;;;;;5.85;2.38;;;18.10;99.90;;;;;;5053628;28;20024;-66
2021/08/23 07:58:05;;;;;;;7.03;2.60;;;18.30;99.90;;;;;;5053105;28;20024;-67
2021/08/23 08:00:31;;;;;;;3.92;2.15;;;18.30;99.90;;;;;;5053640;28;20025;-66
2021/08/23 08:02:56;;;;;;;5.78;2.50;;;18.40;99.90;;;;;;5053115;28;20025;-66
2021/08/23 08:05:22;;;;;;;6.47;2.60;;;18.50;99.90;;;;;;5052930;28;20025;-66
2021/08/23 08:07:48;;;;;;;4.45;2.50;;;18.50;99.90;;;;;;5043004;28;20025;-67
2021/08/23 08:10:14;;;;;;;5.10;2.63;;;18.50;99.90;;;;;;5042816;28;20036;-66
2021/08/23 08:12:41;;;;;;;3.75;2.22;;;18.40;99.90;;;;;;5054000;28;20092;-66
2021/08/23 08:15:07;;;;;;;6.18;2.28;;;18.40;99.90;;;;;;5053433;28;20017;-66
2021/08/23 08:17:33;;;;;;;4.57;2.47;;;18.30;99.90;;;;;;5053440;28;20108;-66
2021/08/23 08:19:59;;;;;;;4.45;2.25;;;18.40;99.90;;;;;;5053255;28;20017;-66
2021/08/23 08:22:25;;;;;;;3.67;2.10;;;18.40;99.90;;;;;;5052168;28;20043;-66
2021/08/23 08:24:50;;;;;;;5.75;2.50;;;18.40;99.90;;;;;;5053202;28;20032;-66
2021/08/23 08:27:16;;;;;;;3.97;2.35;;;18.50;99.90;;;;;;5052053;28;20025;-66
2021/08/23 08:29:42;;;;;;;8.55;2.15;;;18.60;99.90;;;;;;5052896;28;20021;-66
2021/08/23 08:32:08;;;;;;;4.25;2.40;;;18.70;99.90;;;;;;5052403;28;20032;-66
2021/08/23 08:34:34;;;;;;;3.10;2.30;;;18.70;99.90;;;;;;5052924;28;20029;-66
2021/08/23 08:37:01;;;;;;;8.45;2.33;;;18.70;99.90;;;;;;5042482;28;20032;-66
2021/08/23 08:39:27;;;;;;;6.20;2.30;;;18.70;99.90;;;;;;5051565;28;20021;-66
2021/08/23 08:41:53;;;;;;;5.80;2.58;;;18.70;99.90;;;;;;5053929;28;20694;-66
2021/08/23 08:44:18;;;;;;;3.95;2.15;;;18.70;99.90;;;;;;5049794;28;20029;-66
2021/08/23 08:46:45;;;;;;;3.22;2.10;;;18.70;99.90;;;;;;5052214;28;20497;-67
2021/08/23 08:49:12;;;;;;;6.88;2.72;;;18.80;99.90;;;;;;5052299;28;20099;-67
2021/08/23 08:51:38;;;;;;;3.92;2.25;;;18.80;99.90;;;;;;5052412;28;20033;-67
2021/08/23 08:54:05;;;;;;;3.80;2.33;;;18.90;99.90;;;;;;5052486;28;20433;-67
2021/08/23 08:56:34;;;;;;;4.05;2.28;;;18.90;99.90;;;;;;5051656;28;20017;-65
2021/08/23 08:59:01;;;;;;;4.90;2.70;;;19.00;99.90;;;;;;5049860;28;20025;-67
2021/08/23 09:01:27;;;;;;;6.20;2.53;;;19.20;99.90;;;;;;5051909;28;20489;-67
2021/08/23 09:03:59;;;;;;;5.53;2.35;;;19.30;99.90;;;;;;5052551;28;20060;-67
2021/08/23 09:06:25;;;;;;;5.50;2.42;;;19.30;99.90;;;;;;5049679;28;20071;-67
2021/08/23 09:08:50;;;;;;;5.32;2.13;;;19.40;99.90;;;;;;5052295;28;20464;-67
2021/08/23 09:11:18;;;;;;;4.22;2.05;;;19.50;99.90;;;;;;5051931;28;20052;-67
2021/08/23 09:14:03;;;;;;;4.25;2.72;;;19.60;99.90;;;;;;5052609;28;20035;-66
2021/08/23 09:16:39;;;;;;;4.15;2.50;;;19.80;99.90;;;;;;5050568;28;20027;-67
2021/08/23 09:19:05;;;;;;;4.63;2.45;;;19.90;99.90;;;;;;5050378;28;20025;-67
2021/08/23 09:21:34;;;;;;;4.38;2.03;;;20.10;99.90;;;;;;5051540;28;20033;-67
2021/08/23 09:24:00;;;;;;;4.55;2.65;;;20.20;99.90;;;;;;5049500;28;20040;-67
2021/08/23 09:26:32;;;;;;;5.53;2.58;;;20.20;99.90;;;;;;5051456;28;20021;-67
2021/08/23 09:29:06;;;;;;;3.50;2.20;;;20.30;99.90;;;;;;5051543;28;20429;-67
2021/08/23 09:31:35;;;;;;;3.72;2.47;;;20.40;99.90;;;;;;5051282;28;20028;-67
2021/08/23 09:34:06;;;;;;;3.58;2.33;;;20.40;99.90;;;;;;5049342;28;20024;-66
2021/08/23 09:36:32;;;;;;;5.07;2.35;;;20.40;99.90;;;;;;5051379;28;20021;-66
2021/08/23 09:39:00;;;;;;;3.95;2.17;;;20.30;99.90;;;;;;5052173;28;20052;-67
2021/08/23 09:41:27;;;;;;;8.18;3.00;;;20.30;99.90;;;;;;5051645;28;20048;-67
2021/08/23 09:44:00;;;;;;;5.68;2.50;;;20.30;99.90;;;;;;5052059;28;20100;-67
2021/08/23 09:46:26;;;;;;;5.93;2.55;;;20.30;99.90;;;;;;5049701;28;20021;-67
2021/08/23 09:48:54;;;;;;;5.05;2.55;;;20.40;99.90;;;;;;5051355;28;20424;-66
2021/08/23 09:51:27;;;;;;;5.43;2.20;;;20.70;99.90;;;;;;5046054;28;20028;-67
2021/08/23 09:54:10;;;;;;;3.35;2.38;;;20.90;99.90;;;;;;5052537;28;20368;-68
2021/08/23 09:56:53;;;;;;;5.10;2.47;;;21.20;99.60;;;;;;5052658;28;20374;-67
2021/08/23 09:59:23;;;;;;;5.15;2.38;;;21.20;99.90;;;;;;5051241;28;20112;-68
2021/08/23 10:01:52;;;;;;;3.83;2.50;;;21.10;99.90;;;;;;5051823;28;20083;-67
2021/08/23 10:04:18;;;;;;;7.78;2.95;;;21.00;99.90;;;;;;5051122;28;20029;-66
2021/08/23 10:06:46;;;;;;;8.27;3.10;;;20.80;99.90;;;;;;5051869;28;20033;-66
2021/08/23 10:09:26;;;;;;;6.72;3.10;;;20.50;99.90;;;;;;5051239;28;20481;-66
2021/08/23 10:11:57;;;;;;;8.10;3.15;;;20.30;99.90;;;;;;5050470;28;20359;-67
2021/08/23 10:14:24;;;;;;;5.95;3.20;;;20.10;99.90;;;;;;5050721;28;20108;-66
2021/08/23 10:16:50;;;;;;;6.07;3.70;;;19.80;99.90;;;;;;5051525;28;20024;-67
2021/08/23 10:19:16;;;;;;;5.85;2.90;;;19.70;99.90;;;;;;5050870;28;20025;-66
2021/08/23 10:21:44;;;;;;;9.02;3.83;;;19.60;99.90;;;;;;5051459;28;20037;-66
2021/08/23 10:24:12;;;;;;;5.88;3.30;;;19.50;99.90;;;;;;5051434;28;20056;-66
2021/08/23 10:26:47;;;;;;;6.38;3.55;;;19.40;99.90;;;;;;5051649;28;20520;-66
2021/08/23 10:29:15;;;;;;;6.22;3.30;;;19.60;99.90;;;;;;5051119;28;20108;-68
2021/08/23 10:31:43;;;;;;;6.45;3.40;;;19.70;99.90;;;;;;5051444;28;20033;-68
2021/08/23 10:34:11;;;;;;;4.97;2.65;;;19.80;99.90;;;;;;5051761;28;20036;-68
2021/08/23 10:36:37;;;;;;;4.43;2.78;;;19.90;99.90;;;;;;5051607;28;20430;-68
2021/08/23 10:39:04;;;;;;;5.40;2.60;;;20.00;99.90;;;;;;5051398;28;20116;-68
2021/08/23 10:41:30;;;;;;;3.08;2.30;;;20.20;99.90;;;;;;5050819;28;20084;-67
2021/08/23 10:44:00;;;;;;;8.70;3.22;;;20.40;99.90;;;;;;5051386;28;20053;-69
2021/08/23 10:46:39;;;;;;;3.65;2.50;;;20.60;99.90;;;;;;5050834;28;20029;-67
2021/08/23 10:49:16;;;;;;;3.15;2.03;;;20.70;99.90;;;;;;5051593;28;20048;-66
2021/08/23 10:51:55;;;;;;;3.45;2.30;;;20.70;99.90;;;;;;5051404;28;20029;-71
2021/08/23 10:54:27;;;;;;;5.22;2.80;;;20.70;99.90;;;;;;5049814;28;20029;-65
2021/08/23 10:57:08;;;;;;;5.00;2.30;;;20.80;99.90;;;;;;5048838;28;20029;-66
2021/08/23 10:59:48;;;;;;;4.32;2.20;;;20.80;99.90;;;;;;5051114;28;20473;-65
2021/08/23 11:02:32;;;;;;;5.43;2.20;;;20.80;99.90;;;;;;5053855;28;20075;-66
2021/08/23 11:05:07;;;;;;;3.25;2.20;;;21.00;99.90;;;;;;5055277;28;20472;-66
2021/08/23 11:07:34;;;;;;;3.65;2.30;;;21.20;99.90;;;;;;5053939;28;20126;-65
2021/08/23 11:10:24;;;;;;;2.45;1.70;;;21.40;99.70;;;;;;5054388;28;20044;-66
2021/08/23 11:12:55;;;;;;;2.40;1.93;;;21.50;99.90;;;;;;5054595;28;20037;-65
2021/08/23 11:15:24;;;;;;;2.33;2.00;;;21.40;98.70;;;;;;5053401;28;20463;-65
2021/08/23 11:17:56;;;;;;;2.13;1.92;;;21.30;99.40;;;;;;5054371;28;20449;-65
2021/08/23 11:20:24;;;;;;;3.03;1.90;;;21.10;99.30;;;;;;5053635;28;20108;-65
2021/08/23 11:23:01;;;;;;;3.42;1.95;;;20.90;99.70;;;;;;5054384;28;20037;-65
2021/08/23 11:25:48;;;;;;;2.78;2.28;;;20.80;99.90;;;;;;5053505;28;20450;-65
2021/08/23 11:28:19;;;;;;;3.88;2.10;;;20.80;99.90;;;;;;5054024;28;20115;-65
2021/08/23 11:30:51;;;;;;;3.83;1.92;;;20.90;99.80;;;;;;5054313;28;20029;-65
2021/08/23 11:33:34;;;;;;;3.28;2.00;;;20.90;99.10;;;;;;5054468;28;20132;-65
2021/08/23 11:36:02;;;;;;;2.63;2.10;;;20.80;99.20;;;;;;5054094;28;20501;-65
2021/08/23 11:38:31;;;;;;;2.67;1.80;;;20.80;99.70;;;;;;5053303;28;20025;-65
2021/08/23 11:40:58;;;;;;;2.08;1.80;;;21.00;99.00;;;;;;5053837;28;20052;-65
2021/08/23 11:43:28;;;;;;;2.60;1.48;;;21.20;98.90;;;;;;5053496;28;20048;-65
2021/08/23 11:45:54;;;;;;;5.72;1.60;;;21.50;99.20;;;;;;5053943;28;20029;-66
2021/08/23 11:48:20;;;;;;;1.92;1.67;;;22.00;96.40;;;;;;5052469;28;20033;-66
2021/08/23 11:50:46;;;;;;;1.75;1.63;;;22.20;96.70;;;;;;5053073;28;20031;-66
2021/08/23 11:53:12;;;;;;;8.18;1.80;;;22.70;95.10;;;;;;5053341;28;20478;-64
2021/08/23 11:55:41;;;;;;;2.60;1.63;;;23.00;94.60;;;;;;5052749;28;20029;-64
2021/08/23 11:58:08;;;;;;;3.33;1.90;;;23.00;93.40;;;;;;5051311;28;20112;-65
2021/08/23 12:00:36;;;;;;;3.30;1.77;;;22.70;92.90;;;;;;5051849;28;20251;-65
2021/08/23 12:03:12;;;;;;;1.60;1.50;;;22.40;93.50;;;;;;5053814;28;20500;-66
2021/08/23 12:05:43;;;;;;;3.42;1.67;;;22.10;94.10;;;;;;5051723;28;20044;-66
2021/08/23 12:08:24;;;;;;;3.13;1.77;;;21.90;94.90;;;;;;5052894;28;20029;-64
2021/08/23 12:10:55;;;;;;;2.28;1.67;;;21.90;94.80;;;;;;5052626;28;20037;-64
2021/08/23 12:13:23;;;;;;;1.90;1.52;;;22.20;93.90;;;;;;5051970;28;20439;-64
2021/08/23 12:15:53;;;;;;;1.65;1.35;;;22.30;93.10;;;;;;5050581;28;20536;-64
2021/08/23 12:18:27;;;;;;;1.55;1.42;;;22.20;93.40;;;;;;5052622;28;20071;-64
2021/08/23 12:21:04;;;;;;;5.07;1.83;;;22.20;94.00;;;;;;5052740;28;20021;-64
2021/08/23 12:23:30;;;;;;;2.45;2.05;;;22.60;92.00;;;;;;5052102;28;20048;-65
2021/08/23 12:26:07;;;;;;;2.78;2.15;;;22.40;92.40;;;;;;5052759;28;20017;-65
2021/08/23 12:28:33;;;;;;;2.63;1.75;;;22.00;92.80;;;;;;5049492;28;20021;-64
2021/08/23 12:31:06;;;;;;;2.83;1.48;;;21.70;93.60;;;;;;5052855;28;20036;-65
2021/08/23 12:33:32;;;;;;;2.28;1.38;;;21.70;93.90;;;;;;5052003;28;20029;-65
2021/08/23 12:35:58;;;;;;;2.13;1.70;;;22.10;92.70;;;;;;5053113;28;20029;-65
2021/08/23 12:38:23;;;;;;;2.33;1.70;;;22.70;91.40;;;;;;5052640;28;20033;-65
2021/08/23 12:40:49;;;;;;;1.83;1.60;;;23.20;90.80;;;;;;5052773;28;20060;-65
2021/08/23 12:43:15;;;;;;;1.80;1.55;;;23.50;88.20;;;;;;5052389;28;20037;-65
2021/08/23 12:45:41;;;;;;;2.25;1.40;;;23.50;86.80;;;;;;5052184;28;20033;-65
2021/08/23 12:48:07;;;;;;;2.40;1.50;;;23.50;86.00;;;;;;5052646;28;20071;-65
2021/08/23 12:50:32;;;;;;;1.63;1.52;;;23.80;85.60;;;;;;5052025;28;20040;-65